aviador You're here:

CYQA Decoded Metar

MUSKOKA in ON, CANADA
Report Time2017-08-17 13:00:00
UTC Time2017-08-17 13:30:20
Flight Rules vfr VFR
Wind140° at 08 kt
W.Decomp.*RWY 18: 7.0 kt HW 3.9 kt LCW
W.Rank140° ranks 6
Current wind is above 140° avg. (6.3)
Visibility9999 m
Phenomena:N/A
Clouds:N/A
Expected CloudBase > 1,200 ft AGL from Temp-Dew spread
CeilingNone
Temp18°C (ISA +5)
Dew Point15°C (83% RH)
AAT16.8°C
QNH1017 hPa
Density Alt1,588 ft
Elevation925 ft
Report Wrong Elevation
Raw Report
CYQA 171300Z AUTO 14008KT 9SM CLR 18/15 A3002 RMK SLP168 DENSITY
ALT 1300FT=

Extra information for CYQA:More info

Metar Taf Metar & Taf Last 4 Metars F.Rules Stats Wind Profile Meteogram Temp Stats Airport Information Weather charts Add Link Nearby VenuesMetar ALERT Operation Metar Decoded Social comments